ADDS METAR Data INFO
IDs: Format: Raw Decoded Include TAF

Data at: 0751 UTC 20 Feb 2018

KBPG 200735Z AUTO 18020KT 10SM CLR 18/14 A2976 RMK AO2 T01810138
KBPG 200715Z AUTO 18022G26KT 10SM CLR 19/14 A2976 RMK AO2 T01850138
KBPG 200655Z AUTO 17020G28KT 10SM CLR 19/14 A2975 RMK AO2 T01850139
KBPG 200635Z AUTO 17018G23KT 10SM CLR 19/14 A2975 RMK AO2 T01850142
KBPG 200615Z AUTO 16020KT 10SM CLR 18/14 A2975 RMK AO2 T01830142
KBPG 200555Z AUTO 16021G25KT 10SM CLR 19/14 A2975 RMK AO2 T01850140 10216 20175 402380147
KBPG 200535Z AUTO 17018G23KT 10SM CLR 19/14 A2975 RMK AO2 T01850135
KBPG 200515Z AUTO 16020G25KT 10SM CLR 19/13 A2975 RMK AO2 T01850129
KBPG 200455Z AUTO 16017G21KT 10SM CLR 18/11 A2975 RMK AO2 T01800113
KBPG 200435Z AUTO 17015KT 10SM CLR 18/09 A2976 RMK AO2 T01750094
KBPG 200415Z AUTO 17014KT 10SM CLR 18/09 A2975 RMK AO2 T01760088
KBPG 200355Z AUTO 16013KT 10SM CLR 18/09 A2975 RMK AO2 T01790087
KBPG 200335Z AUTO 16016G21KT 10SM CLR 18/09 A2975 RMK AO2 T01800090
KBPG 200315Z AUTO 17012G19KT 10SM CLR 19/09 A2975 RMK AO2 T01850090
KBPG 200255Z AUTO 16013KT 10SM CLR 19/09 A2975 RMK AO2 T01850091
KBPG 200235Z AUTO 17012KT 10SM CLR 18/09 A2975 RMK AO2 T01830090
KBPG 200215Z AUTO 16011KT 10SM CLR 18/09 A2973 RMK AO2 T01800093
KBPG 200155Z AUTO 16009KT 10SM CLR 18/09 A2974 RMK AO2 T01810093
KBPG 200135Z AUTO 17011KT 10SM CLR 19/09 A2974 RMK AO2 T01900092
KBPG 200115Z AUTO 17014KT 10SM CLR 20/10 A2975 RMK AO2 T01970095
KBPG 200055Z AUTO 17016G19KT 10SM CLR 20/10 A2974 RMK AO2 T02020096
KBPG 200035Z AUTO 17018G23KT 10SM CLR 21/10 A2973 RMK AO2 T02080096
KBPG 200015Z AUTO 17016KT 10SM CLR 21/09 A2973 RMK AO2 T02120092
KBPG 192355Z AUTO 17018G22KT 10SM SCT100 22/09 A2972 RMK AO2 T02160090 10238 20212
KBPG 192335Z AUTO 17022KT 10SM BKN100 22/09 A2972 RMK AO2 T02200085
KBPG 192315Z AUTO 18019G25KT 10SM SCT110 23/08 A2973 RMK AO2 T02260076
KBPG 192255Z AUTO 19016KT 10SM SCT110 23/08 A2975 RMK AO2 T02300079
KBPG 192235Z AUTO 18015KT 10SM BKN110 23/08 A2974 RMK AO2 T02300080
KBPG 192215Z AUTO 18015KT 10SM SCT090 BKN120 23/09 A2973 RMK AO2 T02280093
KBPG 192155Z AUTO 19012KT 10SM SCT070 SCT100 BKN110 23/09 A2973 RMK AO2 T02280091
KBPG 192135Z AUTO 20018G21KT 10SM BKN110 23/09 A2974 RMK AO2 T02300091
KBPG 192115Z AUTO 20016G22KT 10SM CLR 24/09 A2975 RMK AO2 T02350090
KBPG 192055Z AUTO 20016G23KT 10SM CLR 23/10 A2976 RMK AO2 T02340098
KBPG 192035Z AUTO 20016G21KT 10SM CLR 24/10 A2977 RMK AO2 T02370103
KBPG 192015Z AUTO 19015KT 10SM CLR 23/11 A2977 RMK AO2 T02280105
KBPG 191955Z AUTO 19015KT 10SM CLR 23/11 A2978 RMK AO2 T02250111
KBPG 191935Z AUTO 19014G20KT 10SM CLR 22/11 A2979 RMK AO2 T02240111
KBPG 191915Z AUTO 18014KT 10SM CLR 23/11 A2980 RMK AO2 T02280110
KBPG 191855Z AUTO 18013KT 7SM CLR 22/11 A2980 RMK AO2 T02220114
KBPG 191835Z AUTO 18015G19KT 10SM CLR 22/12 A2982 RMK AO2 T02220119
KBPG 191815Z AUTO 19016KT 10SM CLR 22/13 A2983 RMK AO2 T02210130
KBPG 191755Z AUTO 18016KT 10SM SCT022 21/13 A2984 RMK AO2 T02140133 10215 20147
KBPG 191735Z AUTO 19014KT 10SM SCT020 21/14 A2984 RMK AO2 T02070144
KBPG 191715Z AUTO 19015G19KT 10SM SCT020 20/14 A2985 RMK AO2 T01960143
KBPG 191655Z AUTO 18014KT 7SM SCT017 19/15 A2985 RMK AO2 T01930146
KBPG 191635Z AUTO 18017KT 10SM BKN017 20/15 A2986 RMK AO2 T01950147
KBPG 191615Z AUTO 19014KT 7SM BKN013 18/15 A2986 RMK AO2 T01840148
KBPG 191555Z AUTO 20015KT 10SM BKN013 18/15 A2987 RMK AO2 T01810150
KBPG 191535Z AUTO 19009G14KT 7SM CLR 18/15 A2985 RMK AO2 T01780153
KBPG 191515Z AUTO 18009KT 7SM CLR 16/15 A2986 RMK AO2 T01630147
KBPG 191455Z AUTO 17006KT 5SM CLR 15/14 A2986 RMK AO2 T01520143
KBPG 191435Z AUTO 18007KT 5SM CLR 15/14 A2985 RMK AO2 T01480138
KBPG 191415Z AUTO 19008KT 5SM CLR 15/14 A2985 RMK AO2 T01480137
KBPG 191355Z AUTO 18009KT 5SM CLR 15/14 A2984 RMK AO2 T01470136
KBPG 191335Z AUTO 18009KT 7SM CLR 15/14 A2984 RMK AO2 T01500137
KBPG 191315Z AUTO 19010KT 7SM CLR 15/14 A2984 RMK AO2 T01520136
KBPG 191255Z AUTO 19011KT 10SM CLR 16/14 A2984 RMK AO2 T01550137
KBPG 191235Z AUTO 19014KT 7SM CLR 16/14 A2983 RMK AO2 T01550135
KBPG 191215Z AUTO 18012KT 7SM CLR 16/14 A2983 RMK AO2 T01560135
KBPG 191155Z AUTO 18012KT 7SM CLR 16/13 A2982 RMK AO2 T01550134 10163 20149
KBPG 191135Z AUTO 20010KT 7SM CLR 16/14 A2982 RMK AO2 T01560135
KBPG 191115Z AUTO 19011KT 7SM CLR 15/14 A2982 RMK AO2 T01520140
KBPG 191055Z AUTO 18012KT 7SM CLR 15/14 A2980 RMK AO2 T01500140
KBPG 191035Z AUTO 17012KT 7SM CLR 15/14 A2980 RMK AO2 T01520140
KBPG 191015Z AUTO 18012KT 7SM CLR 16/14 A2980 RMK AO2 T01560142
KBPG 190955Z AUTO 18010KT 7SM SCT018 SCT023 16/14 A2980 RMK AO2 T01560141
KBPG 190935Z AUTO 20009KT 7SM OVC020 16/14 A2981 RMK AO2 T01580142
KBPG 190915Z AUTO 21005KT 7SM OVC020 16/14 A2981 RMK AO2 T01560140
KBPG 190855Z AUTO 23005KT 7SM OVC022 15/14 A2981 RMK AO2 T01520139
KBPG 190835Z AUTO 21003KT 7SM BKN022 BKN027 15/14 A2981 RMK AO2 T01500137
KBPG 190815Z AUTO 23005KT 7SM SCT026 SCT120 15/14 A2982 RMK AO2 T01540137
KBPG 190755Z AUTO 19008KT 10SM CLR 16/14 A2980 RMK AO2 T01570138
KBPG 190735Z AUTO 20007KT 10SM CLR 16/14 A2980 RMK AO2 T01610140
KBPG 190715Z AUTO 18010KT 10SM CLR 16/14 A2980 RMK AO2 T01620140
KBPG 190655Z AUTO 17008KT 10SM SCT095 16/14 A2980 RMK AO2 T01610141
KBPG 190635Z AUTO 17009KT 7SM SCT095 16/14 A2982 RMK AO2 T01610141
KBPG 190615Z AUTO 19009KT 7SM SCT095 16/14 A2983 RMK AO2 T01620141
KBPG 190555Z AUTO 19009KT 10SM CLR 16/14 A2982 RMK AO2 T01610141 10198 20160 402470070
KBPG 190535Z AUTO 20008KT 10SM CLR 16/14 A2984 RMK AO2 T01620142
KBPG 190515Z AUTO 19010KT 7SM CLR 17/14 A2984 RMK AO2 T01650143
KBPG 190455Z AUTO 20009G17KT 10SM SCT095 17/15 A2984 RMK AO2 T01680145
KBPG 190435Z AUTO 18013KT 10SM CLR 17/15 A2984 RMK AO2 T01700146
KBPG 190415Z AUTO 18015KT 10SM SCT100 17/15 A2985 RMK AO2 T01710148
KBPG 190355Z AUTO 18016G20KT 10SM SCT015 BKN110 17/15 A2986 RMK AO2 T01700150
KBPG 190335Z AUTO 17016KT 10SM BKN015 OVC120 17/15 A2985 RMK AO2 T01700151
KBPG 190315Z AUTO 16016KT 10SM BKN015 17/15 A2985 RMK AO2 T01700151
KBPG 190255Z AUTO 16018G27KT 10SM SCT015 SCT085 BKN120 17/15 A2985 RMK AO2 T01700152
KBPG 190230Z AUTO 16023G29KT 10SM SCT120 17/15 A2985 RMK AO2 T01700152
KBPG 190215Z AUTO 16022KT 10SM SCT017 SCT080 BKN110 17/16 A2984 RMK AO2 LTG DSNT NE THRU SE T01700155
KBPG 190155Z AUTO 17025G30KT 10SM TS BKN017 OVC095 18/15 A2986 RMK AO2 LTG DSNT E THRU S T01800149
KBPG 190135Z AUTO 17018G26KT 10SM BKN017 OVC110 18/15 A2985 RMK AO2 LTG DSNT S AND SW T01820146
KBPG 190115Z AUTO 17020KT 10SM BKN017 OVC110 18/15 A2985 RMK AO2 LTG DSNT SW T01830148
KBPG 190055Z AUTO 17018G27KT 10SM BKN019 BKN090 19/15 A2986 RMK AO2 T01860147
KBPG 190035Z AUTO 17018G21KT 10SM SCT017 SCT100 19/15 A2985 RMK AO2 T01880147
KBPG 190015Z AUTO 17019G28KT 10SM CLR 19/15 A2984 RMK AO2 T01910145
KBPG 182355Z AUTO 17022G27KT 10SM CLR 20/14 A2984 RMK AO2 LTG DSNT SW T02000143 10247 20200
KBPG 182335Z AUTO 17023G26KT 10SM CLR 21/14 A2983 RMK AO2 T02060140
KBPG 182315Z AUTO 17023G27KT 10SM CLR 22/14 A2983 RMK AO2 T02180140
KBPG 182255Z AUTO 17023G28KT 10SM CLR 23/14 A2983 RMK AO2 T02270137
KBPG 182235Z AUTO 17020G27KT 10SM CLR 23/14 A2984 RMK AO2 T02340135
KBPG 182215Z AUTO 17021G27KT 10SM CLR 24/14 A2984 RMK AO2 T02390137
KBPG 182155Z AUTO 20024G30KT 10SM CLR 24/13 A2985 RMK AO2 T02390132
KBPG 182135Z AUTO 18020G27KT 10SM CLR 24/14 A2985 RMK AO2 T02390136
KBPG 182115Z AUTO 18021G29KT 10SM CLR 24/14 A2986 RMK AO2 T02430137
KBPG 182055Z AUTO 17023G27KT 10SM CLR 24/14 A2987 RMK AO2 T02440137
KBPG 182035Z AUTO 20020G24KT 10SM CLR 24/14 A2988 RMK AO2 T02440137
KBPG 182015Z AUTO 18020G28KT 10SM CLR 24/14 A2989 RMK AO2 T02410135
KBPG 181955Z AUTO 19022G27KT 10SM SCT037 24/14 A2991 RMK AO2 T02430137